Hampden Sydney, VA (23943)

12:21 AM EST on December 08, 2016 (GMT -0500)
Hampden-Sydney College | | Change Station

Elev 510 ft 37.24 °N, 78.46 °W | Updated 18 seconds ago

Partly Cloudy
Partly Cloudy
42.2 °F
Feels Like 42 °F
N
0.0
Wind Variable Wind from South
Gusts 8.0 mph

Today
High -- | Low -- °F
--% Chance of Precip.
Yesterday
High -- | Low -- °F
Precip. -- in
Pressure 30.04 in
Visibility 10.0 miles
Clouds Clear
Windchill 42 °F
Dew Point 40 °F
Humidity 94%
Rainfall 0.00 in
Snow Depth Not available.
7:15 AM 4:56 PM
First Quarter, 59% visible
METAR KFVX 080515Z AUTO 00000KT 10SM CLR 03/03 A3004 RMK AO2 T00330033
Pressure 30.04 in
Visibility 10.0 miles
Clouds Clear
Windchill 42 °F
Dew Point 40 °F
Humidity 94%
Rainfall 0.00 in
Snow Depth Not available.
7:15 AM 4:56 PM
First Quarter, 59% visible
METAR KFVX 080515Z AUTO 00000KT 10SM CLR 03/03 A3004 RMK AO2 T00330033

10-Day Weather Forecast

Almanac

Astronomy

Dec. 08, 2016 Rise Set
Actual Time
Civil Twilight
Nautical Twilight
Astronomical Twilight
Moon
Length of Visible Light
Length of Day
Tomorrow will be .
, % of the Moon is Illuminated

Today's Extremes

State Highs State Lows

Community

WunderPhotos

Upload Photos

1,956,259 photos uploaded!

WunderBlog® & News

Nearby

Air Quality

  Air Quality AQ Index Pollutant
Not available.

Snow Depth

Station Depth Elevation

Earthquake Activity

City Distance Mag. Time & Date
Minimum magnitude displayed is 2.5.

Coastal Water Temperatures

Place Temperature

Stations

Nearby Weather Stations

Station Location Temp. Windchill Dew Point Humidity Wind Precip. Elev Updated Type
                   

Watches & Warnings

There are currently no watches in effect.